sensor_id;sensor_type;location;lat;lon;timestamp;temperature;humidity
16929;DHT22;8581;47.334;11.190;2023-01-13T00:00:22;0.70;99.90
16929;DHT22;8581;47.334;11.190;2023-01-13T00:02:54;0.60;99.90
16929;DHT22;8581;47.334;11.190;2023-01-13T00:05:25;0.60;99.90
16929;DHT22;8581;47.334;11.190;2023-01-13T00:07:57;0.50;99.90
16929;DHT22;8581;47.334;11.190;2023-01-13T00:10:29;0.40;99.90
16929;DHT22;8581;47.334;11.190;2023-01-13T00:13:00;0.40;99.90
16929;DHT22;8581;47.334;11.190;2023-01-13T00:15:32;0.50;99.90
16929;DHT22;8581;47.334;11.190;2023-01-13T00:18:03;0.30;99.90
16929;DHT22;8581;47.334;11.190;2023-01-13T00:20:35;0.20;99.90
16929;DHT22;8581;47.334;11.190;2023-01-13T00:23:07;0.10;99.90
16929;DHT22;8581;47.334;11.190;2023-01-13T00:25:38;0.10;99.90
16929;DHT22;8581;47.334;11.190;2023-01-13T00:28:10;0.10;99.90
16929;DHT22;8581;47.334;11.190;2023-01-13T00:30:41;0.20;99.90
16929;DHT22;8581;47.334;11.190;2023-01-13T00:33:13;0.30;99.90
16929;DHT22;8581;47.334;11.190;2023-01-13T00:35:45;-0.30;99.90
16929;DHT22;8581;47.334;11.190;2023-01-13T00:38:16;0.20;99.90
16929;DHT22;8581;47.334;11.190;2023-01-13T00:41:05;0.10;99.90
16929;DHT22;8581;47.334;11.190;2023-01-13T00:43:36;0.10;99.90
16929;DHT22;8581;47.334;11.190;2023-01-13T00:46:08;0.10;99.90
16929;DHT22;8581;47.334;11.190;2023-01-13T00:48:39;0.10;99.90
16929;DHT22;8581;47.334;11.190;2023-01-13T00:51:12;0.00;99.90
16929;DHT22;8581;47.334;11.190;2023-01-13T00:53:43;0.00;99.90
16929;DHT22;8581;47.334;11.190;2023-01-13T00:56:14;0.10;99.90
16929;DHT22;8581;47.334;11.190;2023-01-13T00:58:45;0.00;99.90
16929;DHT22;8581;47.334;11.190;2023-01-13T01:01:18;0.00;99.90
16929;DHT22;8581;47.334;11.190;2023-01-13T01:03:50;-0.10;99.90
16929;DHT22;8581;47.334;11.190;2023-01-13T01:06:22;-0.20;99.90
16929;DHT22;8581;47.334;11.190;2023-01-13T01:08:53;-0.30;99.90
16929;DHT22;8581;47.334;11.190;2023-01-13T01:11:26;-0.30;99.90
16929;DHT22;8581;47.334;11.190;2023-01-13T01:13:56;-0.30;99.90
16929;DHT22;8581;47.334;11.190;2023-01-13T01:16:28;-0.40;99.90
16929;DHT22;8581;47.334;11.190;2023-01-13T01:18:59;-0.50;99.90
16929;DHT22;8581;47.334;11.190;2023-01-13T01:21:31;-0.60;99.90
16929;DHT22;8581;47.334;11.190;2023-01-13T01:24:02;-0.70;99.90
16929;DHT22;8581;47.334;11.190;2023-01-13T01:26:34;-1.30;99.90
16929;DHT22;8581;47.334;11.190;2023-01-13T01:29:06;-0.70;99.90
16929;DHT22;8581;47.334;11.190;2023-01-13T01:31:37;-0.90;99.90
16929;DHT22;8581;47.334;11.190;2023-01-13T01:34:09;-0.90;99.90
16929;DHT22;8581;47.334;11.190;2023-01-13T01:36:41;-1.00;99.90
16929;DHT22;8581;47.334;11.190;2023-01-13T01:39:17;-1.20;99.90
16929;DHT22;8581;47.334;11.190;2023-01-13T01:41:49;-1.20;99.90
16929;DHT22;8581;47.334;11.190;2023-01-13T01:47:10;-1.30;99.90
16929;DHT22;8581;47.334;11.190;2023-01-13T01:49:41;-1.50;99.90
16929;DHT22;8581;47.334;11.190;2023-01-13T01:52:31;-1.60;99.90
16929;DHT22;8581;47.334;11.190;2023-01-13T01:55:05;-1.40;99.90
16929;DHT22;8581;47.334;11.190;2023-01-13T01:57:42;-1.50;99.90
16929;DHT22;8581;47.334;11.190;2023-01-13T02:00:13;-1.50;99.90
16929;DHT22;8581;47.334;11.190;2023-01-13T02:02:45;-1.60;99.90
16929;DHT22;8581;47.334;11.190;2023-01-13T02:05:16;-1.60;99.90
16929;DHT22;8581;47.334;11.190;2023-01-13T02:07:49;-1.50;99.90
16929;DHT22;8581;47.334;11.190;2023-01-13T02:10:20;-1.60;99.90
16929;DHT22;8581;47.334;11.190;2023-01-13T02:12:52;-1.60;99.90
16929;DHT22;8581;47.334;11.190;2023-01-13T02:15:26;-1.70;99.90
16929;DHT22;8581;47.334;11.190;2023-01-13T02:18:19;-1.90;99.90
16929;DHT22;8581;47.334;11.190;2023-01-13T02:27:28;-1.80;99.90
16929;DHT22;8581;47.334;11.190;2023-01-13T02:29:49;-1.90;99.90
16929;DHT22;8581;47.334;11.190;2023-01-13T02:32:33;-1.80;99.90
16929;DHT22;8581;47.334;11.190;2023-01-13T02:35:19;-1.70;99.90
16929;DHT22;8581;47.334;11.190;2023-01-13T02:37:46;-1.60;99.90
16929;DHT22;8581;47.334;11.190;2023-01-13T02:40:25;-1.60;99.90
16929;DHT22;8581;47.334;11.190;2023-01-13T02:42:58;-2.50;99.90
16929;DHT22;8581;47.334;11.190;2023-01-13T02:45:52;-1.80;99.90
16929;DHT22;8581;47.334;11.190;2023-01-13T02:48:22;-1.70;99.90
16929;DHT22;8581;47.334;11.190;2023-01-13T02:50:58;-1.70;99.90
16929;DHT22;8581;47.334;11.190;2023-01-13T02:53:31;-1.70;99.90
16929;DHT22;8581;47.334;11.190;2023-01-13T02:56:01;-1.40;99.90
16929;DHT22;8581;47.334;11.190;2023-01-13T02:58:32;-1.10;99.90
16929;DHT22;8581;47.334;11.190;2023-01-13T03:01:04;-1.10;99.90
16929;DHT22;8581;47.334;11.190;2023-01-13T03:03:35;-1.20;99.90
16929;DHT22;8581;47.334;11.190;2023-01-13T03:06:21;-1.20;99.90
16929;DHT22;8581;47.334;11.190;2023-01-13T03:08:49;-1.20;99.90
16929;DHT22;8581;47.334;11.190;2023-01-13T03:11:20;-1.10;99.90
16929;DHT22;8581;47.334;11.190;2023-01-13T03:13:57;-1.20;99.90
16929;DHT22;8581;47.334;11.190;2023-01-13T03:16:29;-1.10;99.90
16929;DHT22;8581;47.334;11.190;2023-01-13T03:19:10;-1.20;99.90
16929;DHT22;8581;47.334;11.190;2023-01-13T03:21:39;-1.20;99.90
16929;DHT22;8581;47.334;11.190;2023-01-13T03:24:16;-1.20;99.90
16929;DHT22;8581;47.334;11.190;2023-01-13T03:26:46;-1.10;99.90
16929;DHT22;8581;47.334;11.190;2023-01-13T03:29:22;-1.00;99.90
16929;DHT22;8581;47.334;11.190;2023-01-13T03:31:59;-1.00;99.90
16929;DHT22;8581;47.334;11.190;2023-01-13T03:34:32;-0.90;99.90
16929;DHT22;8581;47.334;11.190;2023-01-13T03:37:02;-0.90;99.90
16929;DHT22;8581;47.334;11.190;2023-01-13T03:39:35;-0.90;99.90
16929;DHT22;8581;47.334;11.190;2023-01-13T03:42:07;-0.90;99.90
16929;DHT22;8581;47.334;11.190;2023-01-13T03:44:42;-0.80;99.90
16929;DHT22;8581;47.334;11.190;2023-01-13T03:47:18;-0.80;99.90
16929;DHT22;8581;47.334;11.190;2023-01-13T03:49:51;-0.70;99.90
16929;DHT22;8581;47.334;11.190;2023-01-13T03:52:25;-0.80;99.90
16929;DHT22;8581;47.334;11.190;2023-01-13T03:55:00;-0.80;99.90
16929;DHT22;8581;47.334;11.190;2023-01-13T03:57:30;-0.70;99.90
16929;DHT22;8581;47.334;11.190;2023-01-13T04:00:00;-0.80;99.90
16929;DHT22;8581;47.334;11.190;2023-01-13T04:02:35;-0.80;99.90
16929;DHT22;8581;47.334;11.190;2023-01-13T04:05:05;-0.90;99.90
16929;DHT22;8581;47.334;11.190;2023-01-13T04:07:48;-0.90;99.90
16929;DHT22;8581;47.334;11.190;2023-01-13T04:10:23;-0.90;99.90
16929;DHT22;8581;47.334;11.190;2023-01-13T04:12:58;-1.10;99.90
16929;DHT22;8581;47.334;11.190;2023-01-13T04:15:31;-1.30;99.90
16929;DHT22;8581;47.334;11.190;2023-01-13T04:18:07;-1.40;99.90
16929;DHT22;8581;47.334;11.190;2023-01-13T04:20:33;-1.50;99.90
16929;DHT22;8581;47.334;11.190;2023-01-13T04:23:05;-1.50;99.90
16929;DHT22;8581;47.334;11.190;2023-01-13T04:25:36;-1.40;99.90
16929;DHT22;8581;47.334;11.190;2023-01-13T04:28:08;-1.30;99.90
16929;DHT22;8581;47.334;11.190;2023-01-13T04:30:40;-1.30;99.90
16929;DHT22;8581;47.334;11.190;2023-01-13T04:33:12;0.30;99.90
16929;DHT22;8581;47.334;11.190;2023-01-13T04:35:43;-1.20;99.90
16929;DHT22;8581;47.334;11.190;2023-01-13T04:38:16;-1.30;99.90
16929;DHT22;8581;47.334;11.190;2023-01-13T04:40:46;-1.30;99.90
16929;DHT22;8581;47.334;11.190;2023-01-13T04:43:18;-1.30;99.90
16929;DHT22;8581;47.334;11.190;2023-01-13T04:45:49;-1.30;99.90
16929;DHT22;8581;47.334;11.190;2023-01-13T04:48:21;-1.20;99.90
16929;DHT22;8581;47.334;11.190;2023-01-13T04:50:53;-1.20;99.90
16929;DHT22;8581;47.334;11.190;2023-01-13T04:53:24;-1.20;99.90
16929;DHT22;8581;47.334;11.190;2023-01-13T04:55:56;-1.10;99.90
16929;DHT22;8581;47.334;11.190;2023-01-13T04:58:27;-1.00;99.90
16929;DHT22;8581;47.334;11.190;2023-01-13T05:00:59;-1.00;99.90
16929;DHT22;8581;47.334;11.190;2023-01-13T05:03:30;-0.70;99.90
16929;DHT22;8581;47.334;11.190;2023-01-13T05:06:02;-1.00;99.90
16929;DHT22;8581;47.334;11.190;2023-01-13T05:08:34;-0.90;99.90
16929;DHT22;8581;47.334;11.190;2023-01-13T05:11:05;-1.00;99.90
16929;DHT22;8581;47.334;11.190;2023-01-13T05:13:37;-1.10;99.90
16929;DHT22;8581;47.334;11.190;2023-01-13T05:16:14;-1.20;99.90
16929;DHT22;8581;47.334;11.190;2023-01-13T05:18:51;-1.20;99.90
16929;DHT22;8581;47.334;11.190;2023-01-13T05:21:23;-1.10;99.90
16929;DHT22;8581;47.334;11.190;2023-01-13T05:24:00;-0.90;99.90
16929;DHT22;8581;47.334;11.190;2023-01-13T05:26:38;-0.90;99.90
16929;DHT22;8581;47.334;11.190;2023-01-13T05:29:09;-0.80;99.90
16929;DHT22;8581;47.334;11.190;2023-01-13T05:31:41;-0.80;99.90
16929;DHT22;8581;47.334;11.190;2023-01-13T05:34:12;-0.80;99.90
16929;DHT22;8581;47.334;11.190;2023-01-13T05:36:44;-0.60;99.90
16929;DHT22;8581;47.334;11.190;2023-01-13T05:39:16;-0.60;99.90
16929;DHT22;8581;47.334;11.190;2023-01-13T05:41:47;-0.50;99.90
16929;DHT22;8581;47.334;11.190;2023-01-13T05:44:24;-0.50;99.90
16929;DHT22;8581;47.334;11.190;2023-01-13T05:46:56;-0.50;99.90
16929;DHT22;8581;47.334;11.190;2023-01-13T05:49:28;-0.50;99.90
16929;DHT22;8581;47.334;11.190;2023-01-13T05:51:59;-0.40;99.90
16929;DHT22;8581;47.334;11.190;2023-01-13T05:54:31;-0.40;99.90
16929;DHT22;8581;47.334;11.190;2023-01-13T05:57:02;-0.40;99.90
16929;DHT22;8581;47.334;11.190;2023-01-13T05:59:34;-0.20;99.90
16929;DHT22;8581;47.334;11.190;2023-01-13T06:02:06;-0.30;99.90
16929;DHT22;8581;47.334;11.190;2023-01-13T06:04:37;-0.40;99.90
16929;DHT22;8581;47.334;11.190;2023-01-13T06:07:09;-0.40;99.90
16929;DHT22;8581;47.334;11.190;2023-01-13T06:09:40;-0.50;99.90
16929;DHT22;8581;47.334;11.190;2023-01-13T06:12:12;-0.40;99.90
16929;DHT22;8581;47.334;11.190;2023-01-13T06:14:43;-0.30;99.90
16929;DHT22;8581;47.334;11.190;2023-01-13T06:17:15;-0.20;99.90
16929;DHT22;8581;47.334;11.190;2023-01-13T06:19:47;-0.10;99.90
16929;DHT22;8581;47.334;11.190;2023-01-13T06:22:26;0.00;99.90
16929;DHT22;8581;47.334;11.190;2023-01-13T06:24:58;0.00;99.90
16929;DHT22;8581;47.334;11.190;2023-01-13T06:27:30;0.00;99.90
16929;DHT22;8581;47.334;11.190;2023-01-13T06:30:01;0.10;99.90
16929;DHT22;8581;47.334;11.190;2023-01-13T06:32:33;0.10;99.90
16929;DHT22;8581;47.334;11.190;2023-01-13T06:35:05;0.10;99.90
16929;DHT22;8581;47.334;11.190;2023-01-13T06:37:37;0.10;99.90
16929;DHT22;8581;47.334;11.190;2023-01-13T06:40:09;0.10;99.90
16929;DHT22;8581;47.334;11.190;2023-01-13T06:42:41;0.20;99.90
16929;DHT22;8581;47.334;11.190;2023-01-13T06:45:18;0.20;99.90
16929;DHT22;8581;47.334;11.190;2023-01-13T06:47:50;0.20;99.90
16929;DHT22;8581;47.334;11.190;2023-01-13T06:50:21;0.30;99.90
16929;DHT22;8581;47.334;11.190;2023-01-13T06:52:53;0.20;99.90
16929;DHT22;8581;47.334;11.190;2023-01-13T06:55:24;0.00;99.90
16929;DHT22;8581;47.334;11.190;2023-01-13T06:57:56;0.10;99.90
16929;DHT22;8581;47.334;11.190;2023-01-13T07:00:28;0.10;99.90
16929;DHT22;8581;47.334;11.190;2023-01-13T07:03:09;0.30;99.90
16929;DHT22;8581;47.334;11.190;2023-01-13T07:05:40;0.40;99.90
16929;DHT22;8581;47.334;11.190;2023-01-13T07:08:11;0.40;99.90
16929;DHT22;8581;47.334;11.190;2023-01-13T07:10:43;0.40;99.90
16929;DHT22;8581;47.334;11.190;2023-01-13T07:13:14;0.40;99.90
16929;DHT22;8581;47.334;11.190;2023-01-13T07:16:02;0.40;99.90
16929;DHT22;8581;47.334;11.190;2023-01-13T07:18:33;0.40;99.90
16929;DHT22;8581;47.334;11.190;2023-01-13T07:21:05;0.40;99.90
16929;DHT22;8581;47.334;11.190;2023-01-13T07:23:37;0.40;99.90
16929;DHT22;8581;47.334;11.190;2023-01-13T07:26:08;0.50;99.90
16929;DHT22;8581;47.334;11.190;2023-01-13T07:28:40;0.60;99.90
16929;DHT22;8581;47.334;11.190;2023-01-13T07:31:13;0.60;99.90
16929;DHT22;8581;47.334;11.190;2023-01-13T07:33:44;0.80;99.90
16929;DHT22;8581;47.334;11.190;2023-01-13T07:36:15;0.80;99.90
16929;DHT22;8581;47.334;11.190;2023-01-13T07:38:47;0.80;99.90
16929;DHT22;8581;47.334;11.190;2023-01-13T07:41:19;1.00;99.90
16929;DHT22;8581;47.334;11.190;2023-01-13T07:43:56;1.10;99.90
16929;DHT22;8581;47.334;11.190;2023-01-13T07:46:28;1.10;99.90
16929;DHT22;8581;47.334;11.190;2023-01-13T07:48:59;1.30;99.90
16929;DHT22;8581;47.334;11.190;2023-01-13T07:51:31;1.30;99.90
16929;DHT22;8581;47.334;11.190;2023-01-13T07:54:02;1.30;99.90
16929;DHT22;8581;47.334;11.190;2023-01-13T07:56:34;1.50;99.90
16929;DHT22;8581;47.334;11.190;2023-01-13T07:59:06;1.40;99.90
16929;DHT22;8581;47.334;11.190;2023-01-13T08:01:37;1.50;99.90
16929;DHT22;8581;47.334;11.190;2023-01-13T08:04:09;1.50;99.90
16929;DHT22;8581;47.334;11.190;2023-01-13T08:06:40;1.60;99.90
16929;DHT22;8581;47.334;11.190;2023-01-13T08:09:12;1.70;99.90
16929;DHT22;8581;47.334;11.190;2023-01-13T08:11:44;1.70;99.90
16929;DHT22;8581;47.334;11.190;2023-01-13T08:14:17;1.80;99.90
16929;DHT22;8581;47.334;11.190;2023-01-13T08:16:49;1.70;99.90
16929;DHT22;8581;47.334;11.190;2023-01-13T08:19:23;1.80;99.90
16929;DHT22;8581;47.334;11.190;2023-01-13T08:21:55;2.10;99.90
16929;DHT22;8581;47.334;11.190;2023-01-13T08:24:26;2.50;99.90
16929;DHT22;8581;47.334;11.190;2023-01-13T08:26:58;2.70;99.90
16929;DHT22;8581;47.334;11.190;2023-01-13T08:29:30;3.00;99.90
16929;DHT22;8581;47.334;11.190;2023-01-13T08:32:01;3.20;99.90
16929;DHT22;8581;47.334;11.190;2023-01-13T08:34:34;3.20;99.90
16929;DHT22;8581;47.334;11.190;2023-01-13T08:37:04;3.20;99.90
16929;DHT22;8581;47.334;11.190;2023-01-13T08:39:36;3.00;99.90
16929;DHT22;8581;47.334;11.190;2023-01-13T08:42:08;3.20;99.90
16929;DHT22;8581;47.334;11.190;2023-01-13T08:44:39;3.40;99.90
16929;DHT22;8581;47.334;11.190;2023-01-13T08:47:11;3.50;99.90
16929;DHT22;8581;47.334;11.190;2023-01-13T08:49:42;3.50;99.90
16929;DHT22;8581;47.334;11.190;2023-01-13T08:52:14;3.90;99.90
16929;DHT22;8581;47.334;11.190;2023-01-13T08:54:46;4.00;99.90
16929;DHT22;8581;47.334;11.190;2023-01-13T08:57:17;4.10;99.90
16929;DHT22;8581;47.334;11.190;2023-01-13T08:59:50;4.30;99.90
16929;DHT22;8581;47.334;11.190;2023-01-13T09:02:22;4.30;99.90
16929;DHT22;8581;47.334;11.190;2023-01-13T09:04:53;4.50;99.90
16929;DHT22;8581;47.334;11.190;2023-01-13T09:07:25;4.50;99.90
16929;DHT22;8581;47.334;11.190;2023-01-13T09:09:56;4.60;99.90
16929;DHT22;8581;47.334;11.190;2023-01-13T09:12:28;4.50;99.90
16929;DHT22;8581;47.334;11.190;2023-01-13T09:15:05;4.70;99.90
16929;DHT22;8581;47.334;11.190;2023-01-13T09:17:37;5.10;99.90
16929;DHT22;8581;47.334;11.190;2023-01-13T09:20:10;5.30;99.90
16929;DHT22;8581;47.334;11.190;2023-01-13T09:22:42;4.70;99.90
16929;DHT22;8581;47.334;11.190;2023-01-13T09:25:13;5.20;99.90
16929;DHT22;8581;47.334;11.190;2023-01-13T09:27:45;5.40;99.90
16929;DHT22;8581;47.334;11.190;2023-01-13T09:30:16;5.20;99.90
16929;DHT22;8581;47.334;11.190;2023-01-13T09:32:48;5.20;99.90
16929;DHT22;8581;47.334;11.190;2023-01-13T09:35:20;5.20;99.90
16929;DHT22;8581;47.334;11.190;2023-01-13T09:37:51;5.30;99.90
16929;DHT22;8581;47.334;11.190;2023-01-13T09:40:23;5.30;99.90
16929;DHT22;8581;47.334;11.190;2023-01-13T09:42:59;5.20;99.90
16929;DHT22;8581;47.334;11.190;2023-01-13T09:45:40;5.30;99.90
16929;DHT22;8581;47.334;11.190;2023-01-13T09:48:15;5.40;99.90
16929;DHT22;8581;47.334;11.190;2023-01-13T09:50:53;5.40;99.90
16929;DHT22;8581;47.334;11.190;2023-01-13T09:53:28;5.30;99.90
16929;DHT22;8581;47.334;11.190;2023-01-13T09:55:59;5.40;99.90
16929;DHT22;8581;47.334;11.190;2023-01-13T09:58:31;5.50;99.90
16929;DHT22;8581;47.334;11.190;2023-01-13T10:01:27;5.60;99.90
16929;DHT22;8581;47.334;11.190;2023-01-13T10:03:55;5.60;99.90
16929;DHT22;8581;47.334;11.190;2023-01-13T10:06:32;5.80;99.90
16929;DHT22;8581;47.334;11.190;2023-01-13T10:09:02;5.70;99.90
16929;DHT22;8581;47.334;11.190;2023-01-13T10:11:35;6.00;99.90
16929;DHT22;8581;47.334;11.190;2023-01-13T10:14:17;5.90;99.90
16929;DHT22;8581;47.334;11.190;2023-01-13T10:19:45;5.40;99.90
16929;DHT22;8581;47.334;11.190;2023-01-13T10:22:41;5.30;99.90
16929;DHT22;8581;47.334;11.190;2023-01-13T10:25:26;5.60;99.90
16929;DHT22;8581;47.334;11.190;2023-01-13T10:27:57;5.90;99.90
16929;DHT22;8581;47.334;11.190;2023-01-13T10:30:31;6.20;99.90
16929;DHT22;8581;47.334;11.190;2023-01-13T10:33:00;6.40;99.90
16929;DHT22;8581;47.334;11.190;2023-01-13T10:38:16;7.40;99.90
16929;DHT22;8581;47.334;11.190;2023-01-13T10:40:50;7.90;99.90
16929;DHT22;8581;47.334;11.190;2023-01-13T10:43:20;8.10;99.90
16929;DHT22;8581;47.334;11.190;2023-01-13T10:45:59;8.40;99.90
16929;DHT22;8581;47.334;11.190;2023-01-13T10:48:35;8.50;99.90
16929;DHT22;8581;47.334;11.190;2023-01-13T10:51:28;8.90;99.90
16929;DHT22;8581;47.334;11.190;2023-01-13T10:54:00;9.10;99.90
16929;DHT22;8581;47.334;11.190;2023-01-13T10:56:32;9.10;99.90
16929;DHT22;8581;47.334;11.190;2023-01-13T10:59:22;9.60;99.90
16929;DHT22;8581;47.334;11.190;2023-01-13T11:02:00;9.40;99.90
16929;DHT22;8581;47.334;11.190;2023-01-13T11:04:36;9.30;99.90
16929;DHT22;8581;47.334;11.190;2023-01-13T11:07:48;9.10;99.90
16929;DHT22;8581;47.334;11.190;2023-01-13T11:10:18;8.70;99.90
16929;DHT22;8581;47.334;11.190;2023-01-13T11:12:52;8.20;99.90
16929;DHT22;8581;47.334;11.190;2023-01-13T11:15:23;8.60;99.90
16929;DHT22;8581;47.334;11.190;2023-01-13T11:17:57;8.80;99.90
16929;DHT22;8581;47.334;11.190;2023-01-13T11:20:27;8.50;99.90
16929;DHT22;8581;47.334;11.190;2023-01-13T11:23:00;8.50;99.90
16929;DHT22;8581;47.334;11.190;2023-01-13T11:25:31;9.60;99.90
16929;DHT22;8581;47.334;11.190;2023-01-13T11:30:55;9.90;99.90
16929;DHT22;8581;47.334;11.190;2023-01-13T11:33:33;10.00;99.90
16929;DHT22;8581;47.334;11.190;2023-01-13T11:36:12;11.10;99.90
16929;DHT22;8581;47.334;11.190;2023-01-13T11:39:07;12.20;99.90
16929;DHT22;8581;47.334;11.190;2023-01-13T11:41:46;12.40;99.90
16929;DHT22;8581;47.334;11.190;2023-01-13T11:44:18;12.60;99.90
16929;DHT22;8581;47.334;11.190;2023-01-13T11:46:49;12.60;99.90
16929;DHT22;8581;47.334;11.190;2023-01-13T11:49:23;12.30;99.90
16929;DHT22;8581;47.334;11.190;2023-01-13T11:52:05;12.90;99.90
16929;DHT22;8581;47.334;11.190;2023-01-13T11:54:48;13.20;99.90
16929;DHT22;8581;47.334;11.190;2023-01-13T12:00:06;12.00;99.90
16929;DHT22;8581;47.334;11.190;2023-01-13T12:02:47;11.70;99.90
16929;DHT22;8581;47.334;11.190;2023-01-13T12:05:22;12.10;99.90
16929;DHT22;8581;47.334;11.190;2023-01-13T12:07:56;12.10;99.90
16929;DHT22;8581;47.334;11.190;2023-01-13T12:10:31;13.80;99.90
16929;DHT22;8581;47.334;11.190;2023-01-13T12:13:04;14.60;99.90
16929;DHT22;8581;47.334;11.190;2023-01-13T12:15:35;15.20;98.30
16929;DHT22;8581;47.334;11.190;2023-01-13T12:18:19;16.70;93.10
16929;DHT22;8581;47.334;11.190;2023-01-13T12:21:02;17.60;92.70
16929;DHT22;8581;47.334;11.190;2023-01-13T12:23:37;17.40;90.20
16929;DHT22;8581;47.334;11.190;2023-01-13T12:26:10;15.80;93.50
16929;DHT22;8581;47.334;11.190;2023-01-13T12:29:00;15.20;94.10
16929;DHT22;8581;47.334;11.190;2023-01-13T12:31:30;15.30;95.30
16929;DHT22;8581;47.334;11.190;2023-01-13T12:34:18;14.80;95.80
16929;DHT22;8581;47.334;11.190;2023-01-13T12:37:10;14.40;96.10
16929;DHT22;8581;47.334;11.190;2023-01-13T12:39:50;13.30;95.80
16929;DHT22;8581;47.334;11.190;2023-01-13T12:42:22;12.50;97.10
16929;DHT22;8581;47.334;11.190;2023-01-13T12:45:23;11.30;99.30
16929;DHT22;8581;47.334;11.190;2023-01-13T12:47:53;9.80;99.90
16929;DHT22;8581;47.334;11.190;2023-01-13T12:50:39;9.30;99.90
16929;DHT22;8581;47.334;11.190;2023-01-13T12:56:18;10.10;99.90
16929;DHT22;8581;47.334;11.190;2023-01-13T12:58:27;10.40;99.90
16929;DHT22;8581;47.334;11.190;2023-01-13T13:00:59;9.90;99.90
16929;DHT22;8581;47.334;11.190;2023-01-13T13:03:32;9.40;99.90
16929;DHT22;8581;47.334;11.190;2023-01-13T13:06:09;9.10;99.90
16929;DHT22;8581;47.334;11.190;2023-01-13T13:08:45;9.50;99.90
16929;DHT22;8581;47.334;11.190;2023-01-13T13:11:19;9.50;99.90
16929;DHT22;8581;47.334;11.190;2023-01-13T13:13:55;9.40;99.90
16929;DHT22;8581;47.334;11.190;2023-01-13T13:16:43;9.30;99.90
16929;DHT22;8581;47.334;11.190;2023-01-13T13:22:15;10.30;99.90
16929;DHT22;8581;47.334;11.190;2023-01-13T13:25:18;10.70;99.90
16929;DHT22;8581;47.334;11.190;2023-01-13T13:27:47;11.90;99.90
16929;DHT22;8581;47.334;11.190;2023-01-13T13:30:22;12.50;99.90
16929;DHT22;8581;47.334;11.190;2023-01-13T13:33:10;11.60;99.90
16929;DHT22;8581;47.334;11.190;2023-01-13T13:38:53;10.40;99.90
16929;DHT22;8581;47.334;11.190;2023-01-13T13:41:26;10.40;99.90
16929;DHT22;8581;47.334;11.190;2023-01-13T13:44:34;9.50;99.90
16929;DHT22;8581;47.334;11.190;2023-01-13T13:47:10;8.50;99.90
16929;DHT22;8581;47.334;11.190;2023-01-13T13:49:44;7.80;99.90
16929;DHT22;8581;47.334;11.190;2023-01-13T13:52:40;7.70;99.90
16929;DHT22;8581;47.334;11.190;2023-01-13T13:55:16;8.10;99.90
16929;DHT22;8581;47.334;11.190;2023-01-13T13:57:49;8.70;99.90
16929;DHT22;8581;47.334;11.190;2023-01-13T14:00:24;8.90;99.90
16929;DHT22;8581;47.334;11.190;2023-01-13T14:02:56;9.20;99.90
16929;DHT22;8581;47.334;11.190;2023-01-13T14:05:31;10.10;99.90
16929;DHT22;8581;47.334;11.190;2023-01-13T14:08:12;10.10;99.90
16929;DHT22;8581;47.334;11.190;2023-01-13T14:10:41;11.30;99.90
16929;DHT22;8581;47.334;11.190;2023-01-13T14:13:20;10.90;99.90
16929;DHT22;8581;47.334;11.190;2023-01-13T14:16:02;11.10;99.90
16929;DHT22;8581;47.334;11.190;2023-01-13T14:18:40;11.90;99.90
16929;DHT22;8581;47.334;11.190;2023-01-13T14:21:16;12.20;99.90
16929;DHT22;8581;47.334;11.190;2023-01-13T14:23:51;11.60;99.90
16929;DHT22;8581;47.334;11.190;2023-01-13T14:26:30;11.50;99.90
16929;DHT22;8581;47.334;11.190;2023-01-13T14:29:00;11.60;99.90
16929;DHT22;8581;47.334;11.190;2023-01-13T14:31:32;12.50;99.90
16929;DHT22;8581;47.334;11.190;2023-01-13T14:34:04;13.30;99.90
16929;DHT22;8581;47.334;11.190;2023-01-13T14:36:36;13.30;99.90
16929;DHT22;8581;47.334;11.190;2023-01-13T14:39:23;13.60;99.90
16929;DHT22;8581;47.334;11.190;2023-01-13T14:41:53;12.90;99.90
16929;DHT22;8581;47.334;11.190;2023-01-13T14:44:27;11.60;99.90
16929;DHT22;8581;47.334;11.190;2023-01-13T14:46:59;10.30;99.90
16929;DHT22;8581;47.334;11.190;2023-01-13T14:49:35;9.50;99.90
16929;DHT22;8581;47.334;11.190;2023-01-13T14:52:15;8.70;99.90
16929;DHT22;8581;47.334;11.190;2023-01-13T14:54:47;8.10;99.90
16929;DHT22;8581;47.334;11.190;2023-01-13T14:57:25;7.60;99.90
16929;DHT22;8581;47.334;11.190;2023-01-13T15:02:37;6.80;99.90
16929;DHT22;8581;47.334;11.190;2023-01-13T15:05:31;6.70;99.90
16929;DHT22;8581;47.334;11.190;2023-01-13T15:08:26;6.70;99.90
16929;DHT22;8581;47.334;11.190;2023-01-13T15:10:58;6.50;99.90
16929;DHT22;8581;47.334;11.190;2023-01-13T15:13:36;6.10;99.90
16929;DHT22;8581;47.334;11.190;2023-01-13T15:16:16;6.00;99.90
16929;DHT22;8581;47.334;11.190;2023-01-13T15:18:48;5.90;99.90
16929;DHT22;8581;47.334;11.190;2023-01-13T15:21:19;5.90;99.90
16929;DHT22;8581;47.334;11.190;2023-01-13T15:23:51;5.60;99.90
16929;DHT22;8581;47.334;11.190;2023-01-13T15:26:24;5.50;99.90
16929;DHT22;8581;47.334;11.190;2023-01-13T15:28:56;5.30;99.90
16929;DHT22;8581;47.334;11.190;2023-01-13T15:31:27;5.20;99.90
16929;DHT22;8581;47.334;11.190;2023-01-13T15:33:58;5.20;99.90
16929;DHT22;8581;47.334;11.190;2023-01-13T15:36:31;5.00;99.90
16929;DHT22;8581;47.334;11.190;2023-01-13T15:39:01;4.90;99.90
16929;DHT22;8581;47.334;11.190;2023-01-13T15:41:33;4.70;99.90
16929;DHT22;8581;47.334;11.190;2023-01-13T15:44:11;4.60;99.90
16929;DHT22;8581;47.334;11.190;2023-01-13T15:46:48;4.50;99.90
16929;DHT22;8581;47.334;11.190;2023-01-13T15:49:24;4.70;99.90
16929;DHT22;8581;47.334;11.190;2023-01-13T15:51:54;4.70;99.90
16929;DHT22;8581;47.334;11.190;2023-01-13T15:54:25;5.00;99.90
16929;DHT22;8581;47.334;11.190;2023-01-13T15:56:57;4.90;99.90
16929;DHT22;8581;47.334;11.190;2023-01-13T15:59:28;5.00;99.90
16929;DHT22;8581;47.334;11.190;2023-01-13T16:02:00;4.90;99.90
16929;DHT22;8581;47.334;11.190;2023-01-13T16:04:32;4.70;99.90
16929;DHT22;8581;47.334;11.190;2023-01-13T16:07:04;4.60;99.90
16929;DHT22;8581;47.334;11.190;2023-01-13T16:09:35;4.60;99.90
16929;DHT22;8581;47.334;11.190;2023-01-13T16:12:06;4.30;99.90
16929;DHT22;8581;47.334;11.190;2023-01-13T16:14:38;4.20;99.90
16929;DHT22;8581;47.334;11.190;2023-01-13T16:17:15;4.20;99.90
16929;DHT22;8581;47.334;11.190;2023-01-13T16:19:45;3.90;99.90
16929;DHT22;8581;47.334;11.190;2023-01-13T16:22:16;3.80;99.90
16929;DHT22;8581;47.334;11.190;2023-01-13T16:24:48;3.80;99.90
16929;DHT22;8581;47.334;11.190;2023-01-13T16:27:20;3.70;99.90
16929;DHT22;8581;47.334;11.190;2023-01-13T16:29:51;3.60;99.90
16929;DHT22;8581;47.334;11.190;2023-01-13T16:32:23;3.50;99.90
16929;DHT22;8581;47.334;11.190;2023-01-13T16:34:56;3.50;99.90
16929;DHT22;8581;47.334;11.190;2023-01-13T16:37:28;3.40;99.90
16929;DHT22;8581;47.334;11.190;2023-01-13T16:39:59;3.40;99.90
16929;DHT22;8581;47.334;11.190;2023-01-13T16:42:31;3.30;99.90
16929;DHT22;8581;47.334;11.190;2023-01-13T16:45:03;3.30;99.90
16929;DHT22;8581;47.334;11.190;2023-01-13T16:47:34;3.20;99.90
16929;DHT22;8581;47.334;11.190;2023-01-13T16:50:14;3.20;99.90
16929;DHT22;8581;47.334;11.190;2023-01-13T16:52:41;3.20;99.90
16929;DHT22;8581;47.334;11.190;2023-01-13T16:55:12;3.10;99.90